createdAt,value
2022-11-28T00:00:27.866Z,14.90
2022-11-28T00:05:31.420Z,14.66
2022-11-28T00:10:38.652Z,14.63
2022-11-28T00:15:43.973Z,14.34
2022-11-28T00:20:47.805Z,14.31
2022-11-28T00:25:58.793Z,14.13
2022-11-28T00:31:04.307Z,14.09
2022-11-28T00:36:08.538Z,14.03
2022-11-28T00:41:14.775Z,13.86
2022-11-28T00:46:21.435Z,13.69
2022-11-28T00:51:26.516Z,13.51
2022-11-28T00:56:32.325Z,13.48
2022-11-28T01:01:39.785Z,13.42
2022-11-28T01:06:44.964Z,13.27
2022-11-28T01:11:49.415Z,13.15
2022-11-28T01:16:54.619Z,13.02
2022-11-28T01:21:58.164Z,12.91
2022-11-28T01:27:01.724Z,12.66
2022-11-28T01:32:06.994Z,12.66
2022-11-28T01:37:10.524Z,12.66
2022-11-28T01:42:18.588Z,12.52
2022-11-28T01:47:31.080Z,12.45
2022-11-28T01:52:36.926Z,12.29
2022-11-28T01:57:41.376Z,12.20
2022-11-28T02:02:49.592Z,12.11
2022-11-28T02:07:53.597Z,12.11
2022-11-28T02:13:26.299Z,12.02
2022-11-28T02:18:50.725Z,11.93
2022-11-28T02:24:18.837Z,11.82
2022-11-28T02:29:51.934Z,11.74
2022-11-28T02:35:03.675Z,11.64
2022-11-28T02:40:16.223Z,11.51
2022-11-28T02:45:30.165Z,11.57
2022-11-28T02:50:41.113Z,11.62
2022-11-28T02:55:45.598Z,11.45
2022-11-28T03:00:51.436Z,11.35
2022-11-28T03:06:03.383Z,11.24
2022-11-28T03:11:16.282Z,11.12
2022-11-28T03:16:27.942Z,11.24
2022-11-28T03:21:39.801Z,11.11
2022-11-28T03:26:53.384Z,11.06
2022-11-28T03:32:01.960Z,10.95
2022-11-28T03:37:12.170Z,10.98
2022-11-28T03:42:21.811Z,10.80
2022-11-28T03:47:27.943Z,10.80
2022-11-28T03:52:37.842Z,10.81
2022-11-28T03:57:45.946Z,10.84
2022-11-28T04:02:58.044Z,10.67
2022-11-28T04:08:11.932Z,10.66
2022-11-28T04:13:22.236Z,10.45
2022-11-28T04:18:30.472Z,10.40
2022-11-28T04:23:38.630Z,10.33
2022-11-28T04:28:43.690Z,10.29
2022-11-28T04:33:52.170Z,10.21
2022-11-28T04:38:59.991Z,10.19
2022-11-28T04:44:09.624Z,10.13
2022-11-28T04:49:13.856Z,10.04
2022-11-28T04:54:25.128Z,10.04
2022-11-28T04:59:31.731Z,10.05
2022-11-28T05:04:37.599Z,10.08
2022-11-28T05:09:42.812Z,9.77
2022-11-28T05:14:46.402Z,9.75
2022-11-28T05:19:49.951Z,9.78
2022-11-28T05:24:55.146Z,9.71
2022-11-28T05:29:58.705Z,9.53
2022-11-28T05:35:02.283Z,9.52
2022-11-28T05:40:10.599Z,9.55
2022-11-28T05:45:14.145Z,9.49
2022-11-28T05:50:17.788Z,9.45
2022-11-28T05:55:22.999Z,9.49
2022-11-28T06:00:26.736Z,9.32
2022-11-28T06:05:42.113Z,9.23
2022-11-28T06:10:57.435Z,9.28
2022-11-28T06:16:01.055Z,9.13
2022-11-28T06:21:05.589Z,9.05
2022-11-28T06:26:12.368Z,8.95
2022-11-28T06:31:17.396Z,8.95
2022-11-28T06:36:21.070Z,8.71
2022-11-28T06:41:26.245Z,8.78
2022-11-28T06:46:29.854Z,8.69
2022-11-28T06:51:34.243Z,8.70
2022-11-28T06:56:41.164Z,8.57
2022-11-28T07:01:44.765Z,8.60
2022-11-28T07:06:49.004Z,8.46
2022-11-28T07:11:54.168Z,8.35
2022-11-28T07:16:57.734Z,8.29
2022-11-28T07:22:01.415Z,8.23
2022-11-28T07:27:06.617Z,8.12
2022-11-28T07:32:10.412Z,8.22
2022-11-28T07:37:14.120Z,8.23
2022-11-28T07:42:19.295Z,8.13
2022-11-28T07:47:22.948Z,8.18
2022-11-28T07:52:26.493Z,8.19
2022-11-28T07:57:31.696Z,8.02
2022-11-28T08:02:35.280Z,8.07
2022-11-28T08:07:38.997Z,7.99
2022-11-28T08:12:45.331Z,8.09
2022-11-28T08:17:48.902Z,7.88
2022-11-28T08:22:52.477Z,7.92
2022-11-28T08:27:57.692Z,7.93
2022-11-28T08:33:01.242Z,8.01
2022-11-28T08:38:04.825Z,7.83
2022-11-28T08:43:10.033Z,7.84
2022-11-28T08:48:13.606Z,7.81
2022-11-28T08:53:18.441Z,7.85
2022-11-28T08:58:23.916Z,7.85
2022-11-28T09:03:27.599Z,7.85
2022-11-28T09:08:31.209Z,7.73
2022-11-28T09:13:36.836Z,7.75
2022-11-28T09:18:40.591Z,7.75
2022-11-28T09:23:45.607Z,7.80
2022-11-28T09:34:17.808Z,7.71
2022-11-28T09:39:21.341Z,7.73
2022-11-28T09:44:34.409Z,7.48
2022-11-28T09:49:45.091Z,7.38
2022-11-28T09:54:53.869Z,7.45
2022-11-28T09:59:59.112Z,7.36
2022-11-28T10:05:10.823Z,7.28
2022-11-28T10:10:23.846Z,7.20
2022-11-28T10:15:36.812Z,7.17
2022-11-28T10:20:44.146Z,7.22
2022-11-28T10:25:51.650Z,7.28
2022-11-28T10:31:02.410Z,7.24
2022-11-28T10:36:07.059Z,7.26
2022-11-28T10:41:18.329Z,7.22
2022-11-28T10:46:38.662Z,7.29
2022-11-28T10:51:49.469Z,7.21
2022-11-28T10:57:02.351Z,7.23
2022-11-28T11:02:22.643Z,7.23
2022-11-28T11:07:30.444Z,7.10
2022-11-28T11:12:36.050Z,7.00
2022-11-28T11:17:41.319Z,7.08
2022-11-28T11:22:55.491Z,7.08
2022-11-28T11:28:01.127Z,7.12
2022-11-28T11:33:14.549Z,7.19
2022-11-28T11:38:27.190Z,7.27
2022-11-28T11:43:32.149Z,7.31
2022-11-28T11:48:42.137Z,7.51
2022-11-28T11:53:45.937Z,7.34
2022-11-28T11:58:54.533Z,7.21
2022-11-28T12:04:13.296Z,7.13
2022-11-28T12:09:30.128Z,7.21
2022-11-28T12:14:35.149Z,7.49
2022-11-28T12:19:55.329Z,7.41
2022-11-28T12:25:11.007Z,7.57
2022-11-28T12:30:27.364Z,7.62
2022-11-28T12:35:39.543Z,7.89
2022-11-28T12:40:58.340Z,8.16
2022-11-28T12:46:12.091Z,8.39
2022-11-28T12:51:27.854Z,8.63
2022-11-28T12:56:42.166Z,8.92
2022-11-28T13:02:03.978Z,9.19
2022-11-28T13:07:23.395Z,9.39
2022-11-28T13:12:29.393Z,9.53
2022-11-28T13:17:43.501Z,9.53
2022-11-28T13:23:09.616Z,9.64
2022-11-28T13:28:21.533Z,9.77
2022-11-28T13:33:40.066Z,9.93
2022-11-28T13:39:12.460Z,10.14
2022-11-28T13:44:22.482Z,10.22
2022-11-28T13:49:27.417Z,10.30
2022-11-28T13:54:43.391Z,10.35
2022-11-28T13:59:51.784Z,10.41
2022-11-28T14:04:55.567Z,10.47
2022-11-28T14:10:33.677Z,10.52
2022-11-28T14:15:47.342Z,10.70
2022-11-28T14:20:58.044Z,10.71
2022-11-28T14:26:12.582Z,10.69
2022-11-28T14:31:26.270Z,10.68
2022-11-28T14:36:31.527Z,10.65
2022-11-28T14:42:51.915Z,10.68
2022-11-28T14:48:18.730Z,10.66
2022-11-28T14:53:54.845Z,10.72
2022-11-28T14:59:03.212Z,10.70
2022-11-28T15:04:27.926Z,10.80
2022-11-28T15:09:38.773Z,10.85
2022-11-28T15:14:47.965Z,10.86
2022-11-28T15:19:52.375Z,10.96
2022-11-28T15:25:01.501Z,11.04
2022-11-28T15:30:19.343Z,11.14
2022-11-28T15:35:22.965Z,11.14
2022-11-28T15:40:29.736Z,11.07
2022-11-28T15:45:36.361Z,11.17
2022-11-28T15:50:51.219Z,11.21
2022-11-28T15:56:11.881Z,11.40
2022-11-28T16:01:20.039Z,11.68
2022-11-28T16:06:25.886Z,11.92
2022-11-28T16:11:31.084Z,12.16
2022-11-28T16:16:39.200Z,12.37
2022-11-28T16:21:51.075Z,12.72
2022-11-28T16:26:57.202Z,13.07
2022-11-28T16:32:21.907Z,13.45
2022-11-28T16:37:27.721Z,13.77
2022-11-28T16:42:32.094Z,14.02
2022-11-28T16:47:37.380Z,14.36
2022-11-28T16:52:46.893Z,14.53
2022-11-28T16:57:57.703Z,14.53
2022-11-28T17:03:02.973Z,14.62
2022-11-28T17:08:08.175Z,14.63
2022-11-28T17:13:13.587Z,14.77
2022-11-28T17:18:18.764Z,14.97
2022-11-28T17:23:22.392Z,15.01
2022-11-28T17:28:29.125Z,15.05
2022-11-28T17:33:34.561Z,15.13
2022-11-28T17:38:38.139Z,15.33
2022-11-28T17:43:42.216Z,15.59
2022-11-28T17:48:47.471Z,15.71
2022-11-28T17:53:51.027Z,15.85
2022-11-28T17:58:54.715Z,16.04
2022-11-28T18:04:00.684Z,16.30
2022-11-28T18:09:10.118Z,16.15
2022-11-28T18:14:18.120Z,16.19
2022-11-28T18:19:24.859Z,16.23
2022-11-28T18:24:28.454Z,16.42
2022-11-28T18:29:32.101Z,16.37
2022-11-28T18:34:38.408Z,16.62
2022-11-28T18:39:42.346Z,16.69
2022-11-28T18:44:46.121Z,16.84
2022-11-28T18:49:52.324Z,17.08
2022-11-28T18:54:56.064Z,17.09
2022-11-28T19:00:00.258Z,17.11
2022-11-28T19:05:06.469Z,17.11
2022-11-28T19:10:10.897Z,17.01
2022-11-28T19:15:14.501Z,17.05
2022-11-28T19:20:19.862Z,16.86
2022-11-28T19:25:23.387Z,16.69
2022-11-28T19:30:26.951Z,16.60
2022-11-28T19:35:33.557Z,16.70
2022-11-28T19:40:39.656Z,16.84
2022-11-28T19:45:43.285Z,16.57
2022-11-28T19:50:52.159Z,16.79
2022-11-28T19:55:55.774Z,17.01
2022-11-28T20:01:04.999Z,16.86
2022-11-28T20:06:11.704Z,16.93
2022-11-28T20:11:17.482Z,16.73
2022-11-28T20:16:20.378Z,16.50
2022-11-28T20:21:26.997Z,16.57
2022-11-28T20:26:31.114Z,16.68
2022-11-28T20:31:36.881Z,16.61
2022-11-28T20:36:42.350Z,16.67
2022-11-28T20:41:45.908Z,16.54
2022-11-28T20:46:49.507Z,16.56
2022-11-28T20:51:54.717Z,16.17
2022-11-28T20:57:20.257Z,16.13
2022-11-28T21:02:22.780Z,16.10
2022-11-28T21:07:28.098Z,16.26
2022-11-28T21:12:31.806Z,16.23
2022-11-28T21:17:35.397Z,16.26
2022-11-28T21:22:40.610Z,16.42
2022-11-28T21:27:44.193Z,16.38
2022-11-28T21:32:47.769Z,16.28
2022-11-28T21:37:53.044Z,16.11
2022-11-28T21:42:57.000Z,15.71
2022-11-28T21:48:00.771Z,15.63
2022-11-28T21:53:06.046Z,15.80
2022-11-28T21:58:09.748Z,15.41
2022-11-28T22:03:14.481Z,15.52
2022-11-28T22:08:20.008Z,15.38
2022-11-28T22:13:23.735Z,15.53
2022-11-28T22:18:29.176Z,15.49
2022-11-28T22:23:37.383Z,15.52
2022-11-28T22:28:47.867Z,15.53
2022-11-28T22:33:56.901Z,15.73
2022-11-28T22:39:02.276Z,15.77
2022-11-28T22:44:06.350Z,15.74
2022-11-28T22:49:10.902Z,16.00
2022-11-28T22:54:16.187Z,15.99
2022-11-28T22:59:20.035Z,15.95
2022-11-28T23:04:23.572Z,15.96
2022-11-28T23:09:28.858Z,15.72
2022-11-28T23:14:32.565Z,15.50
2022-11-28T23:19:36.430Z,15.36
2022-11-28T23:24:41.968Z,15.69
2022-11-28T23:29:45.145Z,15.87
2022-11-28T23:34:48.791Z,15.14
2022-11-28T23:39:54.007Z,14.92
2022-11-28T23:44:57.617Z,14.56
2022-11-28T23:50:01.255Z,14.23
2022-11-28T23:55:07.570Z,14.05
